createdAt,value
2023-03-24T00:00:16.084Z,3.13
2023-03-24T00:02:51.505Z,2.28
2023-03-24T00:05:28.453Z,3.40
2023-03-24T00:08:02.933Z,3.00
2023-03-24T00:10:36.765Z,3.30
2023-03-24T00:13:10.658Z,2.85
2023-03-24T00:18:22.485Z,3.45
2023-03-24T00:20:58.865Z,3.13
2023-03-24T00:23:33.743Z,3.35
2023-03-24T00:26:08.872Z,3.25
2023-03-24T00:28:44.034Z,3.10
2023-03-24T00:31:19.335Z,2.45
2023-03-24T00:33:53.964Z,2.92
2023-03-24T00:36:29.561Z,2.97
2023-03-24T00:39:03.710Z,3.20
2023-03-24T00:41:37.166Z,2.60
2023-03-24T00:44:18.142Z,3.00
2023-03-24T00:46:56.525Z,2.97
2023-03-24T00:49:43.100Z,3.30
2023-03-24T00:52:20.651Z,2.33
2023-03-24T00:54:58.231Z,3.15
2023-03-24T00:57:34.813Z,3.03
2023-03-24T01:00:16.873Z,3.30
2023-03-24T01:02:55.033Z,2.78
2023-03-24T01:05:30.557Z,2.53
2023-03-24T01:08:06.381Z,3.03
2023-03-24T01:10:50.193Z,3.38
2023-03-24T01:13:29.324Z,2.22
2023-03-24T01:16:03.314Z,3.65
2023-03-24T01:18:40.752Z,2.97
2023-03-24T01:21:14.565Z,2.83
2023-03-24T01:23:48.063Z,2.42
2023-03-24T01:26:21.690Z,2.95
2023-03-24T01:28:55.420Z,3.63
2023-03-24T01:31:28.898Z,3.30
2023-03-24T01:34:03.887Z,2.50
2023-03-24T01:36:37.409Z,2.50
2023-03-24T01:39:11.011Z,3.60
2023-03-24T01:41:44.515Z,2.90
2023-03-24T01:44:39.433Z,2.75
2023-03-24T01:47:13.668Z,2.47
2023-03-24T01:49:53.160Z,3.03
2023-03-24T01:52:30.373Z,2.58
2023-03-24T01:55:08.190Z,2.50
2023-03-24T01:57:44.160Z,2.47
2023-03-24T02:00:20.635Z,3.08
2023-03-24T02:03:20.990Z,2.63
2023-03-24T02:06:03.519Z,2.75
2023-03-24T02:08:42.557Z,2.65
2023-03-24T02:11:16.510Z,3.13
2023-03-24T02:13:57.239Z,2.92
2023-03-24T02:16:50.404Z,2.92
2023-03-24T02:19:56.243Z,2.97
2023-03-24T02:23:05.471Z,3.28
2023-03-24T02:26:19.491Z,3.17
2023-03-24T02:29:03.676Z,3.20
2023-03-24T02:32:19.224Z,3.10
2023-03-24T02:35:41.235Z,3.03
2023-03-24T02:38:43.979Z,3.72
2023-03-24T02:41:24.747Z,3.42
2023-03-24T02:44:06.632Z,2.85
2023-03-24T02:46:46.691Z,3.33
2023-03-24T02:49:25.531Z,2.95
2023-03-24T02:52:05.294Z,2.47
2023-03-24T02:54:48.186Z,3.17
2023-03-24T02:57:31.080Z,2.47
2023-03-24T03:00:18.588Z,3.50
2023-03-24T03:05:58.844Z,2.70
2023-03-24T03:08:33.964Z,2.88
2023-03-24T03:11:13.307Z,3.35
2023-03-24T03:13:54.068Z,3.45
2023-03-24T03:16:38.443Z,2.83
2023-03-24T03:19:17.946Z,3.33
2023-03-24T03:21:54.991Z,3.17
2023-03-24T03:24:33.056Z,3.40
2023-03-24T03:27:14.895Z,4.07
2023-03-24T03:29:55.124Z,3.03
2023-03-24T03:32:31.685Z,3.00
2023-03-24T03:35:11.037Z,3.50
2023-03-24T03:37:52.674Z,3.28
2023-03-24T03:40:32.287Z,2.78
2023-03-24T03:43:13.439Z,3.30
2023-03-24T03:45:49.151Z,3.08
2023-03-24T03:48:26.728Z,2.72
2023-03-24T03:51:13.031Z,2.72
2023-03-24T03:53:53.737Z,3.28
2023-03-24T03:56:30.402Z,3.50
2023-03-24T03:59:33.905Z,2.85
2023-03-24T04:02:26.876Z,3.70
2023-03-24T04:05:15.328Z,3.88
2023-03-24T04:08:19.674Z,3.20
2023-03-24T04:11:32.602Z,3.28
2023-03-24T04:14:45.823Z,3.40
2023-03-24T04:18:11.399Z,2.95
2023-03-24T04:21:33.847Z,3.00
2023-03-24T04:24:26.660Z,3.53
2023-03-24T04:27:09.419Z,3.53
2023-03-24T04:29:53.138Z,4.50
2023-03-24T04:32:33.668Z,3.35
2023-03-24T04:35:14.336Z,3.88
2023-03-24T04:38:19.033Z,4.18
2023-03-24T04:40:59.509Z,3.33
2023-03-24T04:43:36.710Z,3.72
2023-03-24T04:46:17.795Z,3.15
2023-03-24T04:49:19.244Z,3.58
2023-03-24T04:51:55.982Z,3.95
2023-03-24T04:54:32.814Z,3.60
2023-03-24T04:57:11.253Z,3.88
2023-03-24T04:59:51.197Z,4.75
2023-03-24T05:02:26.184Z,3.10
2023-03-24T05:05:17.195Z,3.55
2023-03-24T05:07:54.805Z,4.40
2023-03-24T05:10:28.687Z,3.75
2023-03-24T05:13:04.739Z,2.92
2023-03-24T05:15:54.883Z,3.20
2023-03-24T05:18:37.198Z,3.20
2023-03-24T05:21:11.165Z,3.60
2023-03-24T05:23:45.892Z,3.20
2023-03-24T05:26:19.376Z,3.08
2023-03-24T05:29:07.042Z,3.33
2023-03-24T05:31:41.214Z,3.15
2023-03-24T05:34:16.450Z,2.97
2023-03-24T05:37:17.689Z,3.45
2023-03-24T05:39:56.599Z,4.00
2023-03-24T05:42:53.369Z,3.25
2023-03-24T05:45:30.261Z,3.15
2023-03-24T05:48:05.513Z,3.15
2023-03-24T05:51:05.446Z,3.33
2023-03-24T05:53:38.962Z,3.08
2023-03-24T05:56:33.842Z,3.00
2023-03-24T05:59:19.404Z,3.03
2023-03-24T06:02:08.615Z,3.03
2023-03-24T06:05:05.378Z,3.45
2023-03-24T06:07:39.065Z,2.75
2023-03-24T06:12:56.559Z,3.00
2023-03-24T06:15:31.099Z,3.38
2023-03-24T06:18:18.365Z,2.80
2023-03-24T06:20:56.485Z,3.08
2023-03-24T06:23:35.567Z,2.65
2023-03-24T06:26:16.770Z,2.70
2023-03-24T06:29:02.121Z,2.65
2023-03-24T06:31:39.859Z,2.85
2023-03-24T06:34:13.728Z,3.50
2023-03-24T06:36:49.876Z,2.65
2023-03-24T06:42:00.399Z,3.83
2023-03-24T06:44:37.946Z,4.57
2023-03-24T06:47:11.563Z,5.18
2023-03-24T06:49:44.933Z,6.35
2023-03-24T06:52:18.288Z,5.28
2023-03-24T06:54:51.616Z,5.80
2023-03-24T06:57:25.003Z,4.63
2023-03-24T07:00:23.395Z,5.53
2023-03-24T07:03:14.118Z,5.28
2023-03-24T07:05:50.393Z,6.10
2023-03-24T07:11:11.566Z,6.22
2023-03-24T07:13:51.171Z,6.03
2023-03-24T07:16:25.992Z,5.85
2023-03-24T07:19:08.739Z,5.45
2023-03-24T07:21:46.928Z,4.78
2023-03-24T07:24:24.133Z,4.90
2023-03-24T07:27:09.589Z,6.15
2023-03-24T07:32:39.573Z,4.95
2023-03-24T07:35:14.677Z,5.85
2023-03-24T07:37:48.072Z,6.63
2023-03-24T07:40:22.172Z,5.57
2023-03-24T07:42:55.682Z,5.45
2023-03-24T07:45:47.052Z,5.38
2023-03-24T07:48:21.994Z,6.32
2023-03-24T07:50:56.052Z,5.10
2023-03-24T07:53:52.429Z,8.55
2023-03-24T07:56:55.187Z,10.63
2023-03-24T07:59:30.114Z,9.45
2023-03-24T08:02:25.238Z,10.05
2023-03-24T08:05:30.762Z,11.50
2023-03-24T08:08:22.141Z,10.70
2023-03-24T08:10:55.636Z,11.02
2023-03-24T08:13:29.030Z,10.60
2023-03-24T08:16:03.123Z,10.88
2023-03-24T08:18:36.653Z,9.80
2023-03-24T08:21:13.369Z,10.43
2023-03-24T08:23:46.712Z,10.27
2023-03-24T08:26:20.175Z,9.20
2023-03-24T08:28:53.694Z,8.15
2023-03-24T08:31:33.189Z,8.63
2023-03-24T08:34:07.857Z,8.80
2023-03-24T08:36:42.626Z,8.10
2023-03-24T08:39:15.947Z,8.20
2023-03-24T08:41:50.391Z,8.38
2023-03-24T08:44:23.817Z,7.10
2023-03-24T08:46:57.315Z,7.25
2023-03-24T08:49:30.684Z,7.40
2023-03-24T08:52:05.566Z,7.28
2023-03-24T08:54:38.859Z,6.28
2023-03-24T08:57:12.157Z,6.25
2023-03-24T08:59:46.409Z,7.25
2023-03-24T09:02:19.926Z,6.30
2023-03-24T09:04:55.848Z,7.15
2023-03-24T09:07:30.732Z,6.72
2023-03-24T09:10:04.945Z,5.75
2023-03-24T09:12:39.653Z,5.70
2023-03-24T09:15:14.235Z,5.90
2023-03-24T09:17:47.591Z,5.30
2023-03-24T09:20:21.496Z,5.07
2023-03-24T09:22:56.969Z,5.40
2023-03-24T09:25:30.384Z,6.20
2023-03-24T09:28:03.783Z,4.82
2023-03-24T09:30:37.201Z,5.00
2023-03-24T09:33:10.606Z,5.07
2023-03-24T09:35:44.070Z,4.97
2023-03-24T09:38:18.865Z,5.43
2023-03-24T09:40:56.316Z,4.57
2023-03-24T09:43:38.154Z,4.43
2023-03-24T09:46:15.584Z,4.60
2023-03-24T09:48:52.922Z,4.70
2023-03-24T09:51:27.796Z,4.15
2023-03-24T09:54:13.913Z,5.43
2023-03-24T09:56:50.915Z,4.32
2023-03-24T09:59:34.201Z,4.18
2023-03-24T10:02:13.375Z,4.50
2023-03-24T10:04:47.128Z,3.42
2023-03-24T10:10:00.892Z,4.25
2023-03-24T10:12:37.886Z,3.55
2023-03-24T10:15:34.706Z,2.80
2023-03-24T10:18:30.344Z,3.38
2023-03-24T10:21:12.212Z,3.20
2023-03-24T10:23:54.701Z,3.67
2023-03-24T10:26:37.658Z,2.80
2023-03-24T10:29:31.050Z,3.30
2023-03-24T10:32:07.785Z,3.28
2023-03-24T10:34:45.211Z,3.33
2023-03-24T10:37:18.707Z,3.40
2023-03-24T10:39:53.036Z,3.00
2023-03-24T10:42:33.861Z,3.40
2023-03-24T10:45:12.656Z,3.35
2023-03-24T10:47:46.354Z,3.45
2023-03-24T10:52:53.448Z,2.72
2023-03-24T10:55:32.421Z,3.20
2023-03-24T10:58:18.674Z,3.20
2023-03-24T11:00:52.074Z,3.40
2023-03-24T11:03:31.622Z,3.10
2023-03-24T11:06:06.985Z,5.07
2023-03-24T11:08:42.057Z,10.23
2023-03-24T11:11:29.279Z,6.95
2023-03-24T11:14:04.984Z,6.85
2023-03-24T11:16:40.087Z,6.35
2023-03-24T11:19:22.326Z,6.20
2023-03-24T11:22:03.480Z,6.63
2023-03-24T11:24:38.696Z,5.32
2023-03-24T11:27:16.563Z,5.53
2023-03-24T11:29:55.069Z,5.43
2023-03-24T11:32:29.943Z,4.88
2023-03-24T11:35:07.241Z,4.90
2023-03-24T11:37:42.172Z,4.65
2023-03-24T11:40:23.379Z,4.70
2023-03-24T11:43:00.143Z,4.78
2023-03-24T11:45:40.947Z,3.53
2023-03-24T11:48:26.013Z,4.13
2023-03-24T11:51:01.076Z,4.30
2023-03-24T11:53:44.394Z,4.00
2023-03-24T11:56:27.278Z,3.92
2023-03-24T11:59:07.691Z,4.40
2023-03-24T12:01:51.156Z,3.72
2023-03-24T12:04:34.587Z,4.07
2023-03-24T12:07:38.157Z,3.70
2023-03-24T12:10:24.519Z,3.97
2023-03-24T12:13:07.023Z,3.85
2023-03-24T12:15:57.529Z,3.05
2023-03-24T12:18:41.795Z,3.35
2023-03-24T12:21:25.573Z,2.92
2023-03-24T12:24:02.216Z,3.70
2023-03-24T12:26:36.584Z,3.42
2023-03-24T12:29:36.698Z,3.42
2023-03-24T12:32:52.599Z,3.13
2023-03-24T12:35:51.719Z,3.50
2023-03-24T12:38:43.424Z,3.58
2023-03-24T12:41:51.716Z,3.78
2023-03-24T12:44:47.023Z,3.63
2023-03-24T12:47:38.276Z,3.38
2023-03-24T12:50:22.367Z,3.55
2023-03-24T12:55:52.204Z,3.45
2023-03-24T12:58:32.554Z,3.47
2023-03-24T13:01:11.403Z,3.65
2023-03-24T13:03:48.696Z,3.38
2023-03-24T13:06:27.069Z,3.38
2023-03-24T13:09:12.003Z,3.53
2023-03-24T13:11:54.518Z,4.25
2023-03-24T13:14:32.245Z,3.15
2023-03-24T13:17:14.560Z,2.97
2023-03-24T13:19:49.364Z,3.35
2023-03-24T13:22:26.020Z,2.85
2023-03-24T13:25:04.534Z,2.60
2023-03-24T13:27:47.300Z,3.60
2023-03-24T13:30:31.867Z,3.22
2023-03-24T13:33:15.657Z,2.70
2023-03-24T13:36:17.711Z,2.83
2023-03-24T13:38:54.589Z,2.80
2023-03-24T13:41:37.686Z,2.35
2023-03-24T13:44:21.269Z,2.47
2023-03-24T13:47:15.999Z,2.45
2023-03-24T13:52:35.610Z,2.92
2023-03-24T13:55:15.564Z,2.60
2023-03-24T13:57:57.088Z,2.33
2023-03-24T14:00:35.421Z,2.30
2023-03-24T14:03:21.075Z,1.83
2023-03-24T14:06:01.140Z,2.05
2023-03-24T14:08:44.786Z,2.00
2023-03-24T14:11:57.828Z,2.20
2023-03-24T14:15:01.441Z,2.53
2023-03-24T14:17:42.182Z,1.80
2023-03-24T14:20:31.781Z,1.98
2023-03-24T14:23:09.016Z,1.92
2023-03-24T14:25:44.380Z,2.00
2023-03-24T14:28:28.371Z,1.90
2023-03-24T14:31:25.337Z,1.80
2023-03-24T14:34:22.423Z,1.67
2023-03-24T14:37:02.949Z,1.63
2023-03-24T14:39:47.549Z,1.98
2023-03-24T14:42:57.955Z,2.30
2023-03-24T14:46:05.579Z,1.90
2023-03-24T14:49:00.877Z,1.58
2023-03-24T14:51:42.151Z,1.58
2023-03-24T14:54:21.082Z,1.83
2023-03-24T14:56:59.739Z,1.73
2023-03-24T14:59:42.345Z,1.88
2023-03-24T15:02:35.649Z,1.90
2023-03-24T15:05:35.174Z,1.73
2023-03-24T15:08:21.839Z,2.05
2023-03-24T15:11:02.773Z,1.85
2023-03-24T15:13:47.863Z,1.75
2023-03-24T15:16:26.029Z,1.70
2023-03-24T15:19:07.727Z,1.95
2023-03-24T15:21:48.039Z,1.95
2023-03-24T15:24:43.427Z,2.13
2023-03-24T15:27:26.766Z,2.40
2023-03-24T15:30:02.806Z,2.47
2023-03-24T15:32:40.580Z,2.30
2023-03-24T15:35:20.655Z,2.20
2023-03-24T15:37:57.637Z,2.40
2023-03-24T15:40:41.242Z,2.70
2023-03-24T15:43:21.150Z,3.03
2023-03-24T15:46:11.031Z,3.22
2023-03-24T15:48:49.157Z,2.83
2023-03-24T15:51:50.439Z,3.70
2023-03-24T15:54:29.528Z,2.92
2023-03-24T15:57:12.903Z,3.42
2023-03-24T15:59:49.479Z,3.38
2023-03-24T16:02:29.494Z,2.92
2023-03-24T16:05:10.693Z,3.40
2023-03-24T16:07:44.824Z,3.28
2023-03-24T16:10:39.598Z,3.00
2023-03-24T16:13:17.712Z,3.42
2023-03-24T16:15:58.903Z,3.20
2023-03-24T16:18:34.706Z,2.47
2023-03-24T16:21:14.423Z,3.00
2023-03-24T16:23:48.668Z,3.25
2023-03-24T16:26:25.625Z,2.60
2023-03-24T16:29:07.942Z,3.28
2023-03-24T16:31:41.738Z,3.10
2023-03-24T16:34:18.977Z,3.72
2023-03-24T16:36:54.305Z,3.17
2023-03-24T16:39:29.340Z,3.45
2023-03-24T16:42:04.116Z,3.20
2023-03-24T16:44:37.605Z,3.53
2023-03-24T16:47:12.283Z,3.55
2023-03-24T16:49:46.307Z,3.03
2023-03-24T16:52:19.703Z,3.70
2023-03-24T16:54:54.265Z,2.97
2023-03-24T16:57:29.004Z,2.83
2023-03-24T17:00:10.645Z,3.55
2023-03-24T17:02:48.212Z,3.00
2023-03-24T17:05:24.401Z,4.00
2023-03-24T17:07:58.514Z,3.50
2023-03-24T17:10:32.177Z,2.70
2023-03-24T17:13:07.274Z,2.75
2023-03-24T17:15:40.928Z,2.80
2023-03-24T17:18:14.944Z,2.60
2023-03-24T17:20:49.052Z,3.45
2023-03-24T17:23:23.344Z,2.30
2023-03-24T17:25:56.686Z,3.05
2023-03-24T17:28:31.900Z,3.33
2023-03-24T17:31:05.830Z,3.00
2023-03-24T17:33:39.539Z,3.10
2023-03-24T17:36:16.534Z,2.75
2023-03-24T17:38:49.981Z,3.00
2023-03-24T17:41:23.726Z,3.30
2023-03-24T17:43:58.615Z,2.60
2023-03-24T17:46:33.019Z,2.78
2023-03-24T17:49:06.821Z,4.18
2023-03-24T17:54:16.748Z,3.47
2023-03-24T17:56:50.371Z,2.80
2023-03-24T17:59:25.420Z,6.95
2023-03-24T18:01:58.970Z,4.20
2023-03-24T18:04:33.660Z,3.85
2023-03-24T18:07:07.190Z,3.88
2023-03-24T18:09:40.849Z,4.22
2023-03-24T18:12:14.941Z,3.50
2023-03-24T18:14:49.828Z,3.30
2023-03-24T18:17:23.539Z,3.67
2023-03-24T18:19:59.595Z,4.20
2023-03-24T18:22:32.954Z,4.55
2023-03-24T18:25:08.582Z,3.97
2023-03-24T18:27:43.497Z,4.25
2023-03-24T18:30:18.456Z,4.47
2023-03-24T18:32:51.879Z,4.43
2023-03-24T18:35:25.490Z,4.63
2023-03-24T18:37:58.858Z,3.88
2023-03-24T18:40:32.352Z,4.53
2023-03-24T18:43:05.721Z,4.00
2023-03-24T18:45:40.594Z,4.43
2023-03-24T18:48:15.797Z,4.07
2023-03-24T18:50:52.023Z,3.72
2023-03-24T18:53:25.890Z,3.92
2023-03-24T18:55:59.278Z,4.07
2023-03-24T18:58:33.759Z,3.95
2023-03-24T19:01:11.109Z,3.75
2023-03-24T19:03:45.388Z,3.90
2023-03-24T19:06:19.935Z,4.32
2023-03-24T19:08:54.252Z,4.35
2023-03-24T19:11:28.060Z,4.47
2023-03-24T19:16:36.095Z,5.00
2023-03-24T19:19:12.525Z,5.55
2023-03-24T19:21:45.912Z,5.93
2023-03-24T19:24:19.484Z,8.73
2023-03-24T19:26:53.209Z,8.93
2023-03-24T19:29:26.558Z,8.10
2023-03-24T19:32:01.427Z,9.15
2023-03-24T19:34:34.895Z,9.60
2023-03-24T19:37:10.286Z,8.85
2023-03-24T19:39:43.647Z,10.15
2023-03-24T19:42:16.971Z,9.27
2023-03-24T19:44:50.459Z,10.40
2023-03-24T19:47:25.389Z,10.27
2023-03-24T19:49:58.898Z,10.50
2023-03-24T19:52:32.254Z,9.90
2023-03-24T19:55:07.134Z,9.50
2023-03-24T19:57:40.585Z,8.70
2023-03-24T20:00:15.631Z,9.25
2023-03-24T20:02:50.500Z,9.60
2023-03-24T20:05:23.938Z,8.82
2023-03-24T20:07:59.739Z,8.75
2023-03-24T20:10:33.376Z,8.27
2023-03-24T20:13:06.692Z,8.18
2023-03-24T20:15:40.045Z,9.10
2023-03-24T20:18:16.383Z,8.80
2023-03-24T20:20:49.700Z,8.07
2023-03-24T20:23:23.417Z,9.07
2023-03-24T20:28:32.917Z,7.75
2023-03-24T20:31:06.640Z,8.32
2023-03-24T20:36:14.646Z,8.23
2023-03-24T20:38:48.248Z,8.85
2023-03-24T20:41:22.045Z,7.72
2023-03-24T20:43:55.547Z,7.63
2023-03-24T20:46:28.936Z,6.55
2023-03-24T20:49:03.717Z,7.30
2023-03-24T20:51:38.527Z,6.78
2023-03-24T20:54:11.936Z,6.95
2023-03-24T20:56:45.339Z,6.78
2023-03-24T20:59:18.955Z,6.25
2023-03-24T21:01:52.302Z,6.15
2023-03-24T21:04:27.164Z,6.75
2023-03-24T21:07:00.992Z,6.68
2023-03-24T21:12:08.082Z,5.43
2023-03-24T21:19:54.720Z,5.60
2023-03-24T21:22:37.363Z,5.53
2023-03-24T21:25:11.012Z,5.40
2023-03-24T21:27:44.345Z,5.85
2023-03-24T21:30:18.888Z,5.65
2023-03-24T21:32:54.225Z,5.57
2023-03-24T21:35:30.292Z,6.15
2023-03-24T21:38:05.570Z,5.47
2023-03-24T21:40:39.699Z,4.90
2023-03-24T21:43:14.841Z,5.20
2023-03-24T21:45:53.846Z,5.63
2023-03-24T21:48:28.011Z,5.35
2023-03-24T21:51:04.096Z,5.20
2023-03-24T21:53:37.591Z,4.47
2023-03-24T21:56:10.968Z,4.70
2023-03-24T21:58:44.280Z,4.40
2023-03-24T22:01:17.697Z,5.47
2023-03-24T22:03:54.212Z,4.05
2023-03-24T22:06:29.707Z,4.35
2023-03-24T22:09:06.765Z,4.35
2023-03-24T22:11:42.836Z,4.93
2023-03-24T22:14:19.067Z,4.28
2023-03-24T22:16:52.605Z,4.25
2023-03-24T22:19:26.211Z,4.82
2023-03-24T22:22:02.148Z,4.25
2023-03-24T22:24:37.801Z,4.13
2023-03-24T22:27:11.201Z,3.83
2023-03-24T22:29:44.703Z,4.72
2023-03-24T22:32:18.284Z,4.00
2023-03-24T22:34:51.623Z,3.70
2023-03-24T22:37:27.857Z,4.45
2023-03-24T22:40:01.475Z,3.90
2023-03-24T22:42:34.758Z,3.83
2023-03-24T22:45:09.539Z,4.13
2023-03-24T22:47:42.990Z,3.97
2023-03-24T22:50:16.951Z,3.80
2023-03-24T22:52:51.668Z,3.33
2023-03-24T22:55:26.029Z,3.92
2023-03-24T22:57:59.341Z,3.50
2023-03-24T23:00:33.911Z,3.55
2023-03-24T23:03:07.353Z,3.20
2023-03-24T23:05:41.583Z,3.80
2023-03-24T23:08:17.282Z,3.35
2023-03-24T23:10:50.577Z,3.45
2023-03-24T23:13:25.401Z,3.58
2023-03-24T23:15:58.747Z,3.55
2023-03-24T23:18:32.673Z,3.50
2023-03-24T23:21:09.186Z,3.55
2023-03-24T23:23:44.817Z,3.10
2023-03-24T23:26:25.968Z,2.85
2023-03-24T23:28:59.989Z,2.90
2023-03-24T23:31:33.523Z,3.40
2023-03-24T23:34:07.689Z,2.85
2023-03-24T23:36:44.804Z,3.03
2023-03-24T23:39:19.486Z,3.13
2023-03-24T23:41:54.067Z,3.00
2023-03-24T23:44:27.392Z,2.55
2023-03-24T23:47:00.931Z,2.60
2023-03-24T23:49:34.280Z,3.00
2023-03-24T23:52:07.572Z,2.80
2023-03-24T23:54:42.281Z,3.60
2023-03-24T23:57:16.002Z,3.00
